createdAt,value
2022-12-11T00:00:39.068Z,84.11
2022-12-11T00:03:41.967Z,83.81
2022-12-11T00:06:44.707Z,83.70
2022-12-11T00:09:47.425Z,83.74
2022-12-11T00:12:51.451Z,84.02
2022-12-11T00:15:54.113Z,84.15
2022-12-11T00:18:56.813Z,83.64
2022-12-11T00:21:59.468Z,83.15
2022-12-11T00:25:02.168Z,83.33
2022-12-11T00:28:06.276Z,83.67
2022-12-11T00:31:10.776Z,83.03
2022-12-11T00:34:13.675Z,82.84
2022-12-11T00:37:16.474Z,83.71
2022-12-11T00:40:19.251Z,83.77
2022-12-11T00:43:23.297Z,83.65
2022-12-11T00:46:25.982Z,83.35
2022-12-11T00:49:28.860Z,83.23
2022-12-11T00:52:31.513Z,82.96
2022-12-11T00:55:38.725Z,83.45
2022-12-11T00:58:42.945Z,83.28
2022-12-11T01:01:45.711Z,83.08
2022-12-11T01:04:48.404Z,83.37
2022-12-11T01:07:51.156Z,84.64
2022-12-11T01:11:02.462Z,83.66
2022-12-11T01:14:06.629Z,83.93
2022-12-11T01:17:09.278Z,84.47
2022-12-11T01:20:12.761Z,84.45
2022-12-11T01:23:15.520Z,84.11
2022-12-11T01:26:18.686Z,84.42
2022-12-11T01:29:22.740Z,83.20
2022-12-11T01:32:25.464Z,83.56
2022-12-11T01:35:29.018Z,83.83
2022-12-11T01:38:31.707Z,83.57
2022-12-11T01:41:34.415Z,83.20
2022-12-11T01:45:19.643Z,83.97
2022-12-11T01:48:26.483Z,83.77
2022-12-11T01:51:32.166Z,83.94
2022-12-11T01:54:36.322Z,83.51
2022-12-11T01:57:42.299Z,83.53
2022-12-11T02:00:45.091Z,83.53
2022-12-11T02:03:49.585Z,84.47
2022-12-11T02:06:53.319Z,84.59
2022-12-11T02:09:56.019Z,83.41
2022-12-11T02:13:04.816Z,84.37
2022-12-11T02:16:16.821Z,83.97
2022-12-11T02:19:38.249Z,83.65
2022-12-11T02:22:58.466Z,84.13
2022-12-11T02:26:13.199Z,84.19
2022-12-11T02:29:23.893Z,83.81
2022-12-11T02:32:31.371Z,83.96
2022-12-11T02:35:38.938Z,84.84
2022-12-11T02:38:46.792Z,84.00
2022-12-11T02:41:52.339Z,84.28
2022-12-11T02:45:00.078Z,84.51
2022-12-11T02:48:06.555Z,84.53
2022-12-11T02:51:11.431Z,84.04
2022-12-11T02:54:20.537Z,84.24
2022-12-11T02:57:28.792Z,84.82
2022-12-11T03:00:33.008Z,84.62
2022-12-11T03:03:35.637Z,84.42
2022-12-11T03:06:44.275Z,84.42
2022-12-11T03:09:48.509Z,84.43
2022-12-11T03:12:55.715Z,83.85
2022-12-11T03:16:11.920Z,84.39
2022-12-11T03:19:23.445Z,83.55
2022-12-11T03:22:33.689Z,84.21
2022-12-11T03:25:45.734Z,84.87
2022-12-11T03:28:50.586Z,84.53
2022-12-11T03:31:59.433Z,84.93
2022-12-11T03:35:06.329Z,84.87
2022-12-11T03:38:14.654Z,84.24
2022-12-11T03:41:20.211Z,83.83
2022-12-11T03:44:25.103Z,83.74
2022-12-11T03:47:30.998Z,83.31
2022-12-11T03:50:36.470Z,81.64
2022-12-11T03:53:40.107Z,83.49
2022-12-11T03:56:45.122Z,84.42
2022-12-11T03:59:48.361Z,83.59
2022-12-11T04:03:12.710Z,82.94
2022-12-11T04:06:15.810Z,81.66
2022-12-11T04:09:18.498Z,81.45
2022-12-11T04:12:21.266Z,80.10
2022-12-11T04:15:23.868Z,81.08
2022-12-11T04:18:45.227Z,81.16
2022-12-11T04:22:05.449Z,81.75
2022-12-11T04:25:09.649Z,81.25
2022-12-11T04:28:12.531Z,80.81
2022-12-11T04:31:16.039Z,80.26
2022-12-11T04:34:20.087Z,80.82
2022-12-11T04:37:22.695Z,80.98
2022-12-11T04:40:25.632Z,80.87
2022-12-11T04:43:28.528Z,79.07
2022-12-11T04:46:31.568Z,79.09
2022-12-11T04:49:35.551Z,77.04
2022-12-11T04:52:38.161Z,78.63
2022-12-11T04:55:40.799Z,79.19
2022-12-11T04:58:45.124Z,79.01
2022-12-11T05:01:47.844Z,79.05
2022-12-11T05:04:51.999Z,78.15
2022-12-11T05:07:54.607Z,77.19
2022-12-11T05:10:58.073Z,78.87
2022-12-11T05:14:00.639Z,77.65
2022-12-11T05:17:03.284Z,77.01
2022-12-11T05:20:09.389Z,77.71
2022-12-11T05:23:11.977Z,78.08
2022-12-11T05:26:17.363Z,78.58
2022-12-11T05:29:19.980Z,76.00
2022-12-11T05:32:22.640Z,78.07
2022-12-11T05:35:26.607Z,77.62
2022-12-11T05:38:29.263Z,77.13
2022-12-11T05:41:33.504Z,76.78
2022-12-11T05:44:36.162Z,78.37
2022-12-11T05:47:38.869Z,77.97
2022-12-11T05:50:42.818Z,78.37
2022-12-11T05:53:47.199Z,78.34
2022-12-11T05:56:51.364Z,79.04
2022-12-11T05:59:53.948Z,79.57
2022-12-11T06:02:56.584Z,79.96
2022-12-11T06:06:02.739Z,79.53
2022-12-11T06:09:06.438Z,80.12
2022-12-11T06:12:09.012Z,79.92
2022-12-11T06:15:12.137Z,79.89
2022-12-11T06:18:14.877Z,79.66
2022-12-11T06:21:20.782Z,80.12
2022-12-11T06:24:23.389Z,80.57
2022-12-11T06:27:25.953Z,80.62
2022-12-11T06:30:38.283Z,80.49
2022-12-11T06:33:42.185Z,80.48
2022-12-11T06:36:46.108Z,80.13
2022-12-11T06:39:48.700Z,80.04
2022-12-11T06:42:51.303Z,80.65
2022-12-11T06:45:55.911Z,80.77
2022-12-11T06:49:01.815Z,80.71
2022-12-11T06:52:06.545Z,80.90
2022-12-11T06:55:09.945Z,80.56
2022-12-11T06:58:12.888Z,80.32
2022-12-11T07:01:18.395Z,80.36
2022-12-11T07:04:24.597Z,80.01
2022-12-11T07:07:28.566Z,80.67
2022-12-11T07:10:31.196Z,79.89
2022-12-11T07:13:34.421Z,80.22
2022-12-11T07:16:37.536Z,80.07
2022-12-11T07:19:40.710Z,79.76
2022-12-11T07:22:46.846Z,79.67
2022-12-11T07:25:49.593Z,80.42
2022-12-11T07:28:52.315Z,80.17
2022-12-11T07:31:55.028Z,80.34
2022-12-11T07:34:57.699Z,80.49
2022-12-11T07:38:01.621Z,81.02
2022-12-11T07:41:05.280Z,80.84
2022-12-11T07:44:07.876Z,80.11
2022-12-11T07:47:10.456Z,80.71
2022-12-11T07:50:13.143Z,80.92
2022-12-11T07:53:17.113Z,80.73
2022-12-11T07:56:20.274Z,80.67
2022-12-11T07:59:22.910Z,80.95
2022-12-11T08:02:25.545Z,80.57
2022-12-11T08:05:28.395Z,80.32
2022-12-11T08:08:32.543Z,80.38
2022-12-11T08:11:35.541Z,80.51
2022-12-11T08:14:38.166Z,80.45
2022-12-11T08:17:40.842Z,80.61
2022-12-11T08:20:43.415Z,81.15
2022-12-11T08:23:47.564Z,81.06
2022-12-11T08:26:50.270Z,81.11
2022-12-11T08:29:52.838Z,81.77
2022-12-11T08:32:55.429Z,80.73
2022-12-11T08:35:58.524Z,80.87
2022-12-11T08:39:02.479Z,81.23
2022-12-11T08:42:05.283Z,81.41
2022-12-11T08:45:09.447Z,80.70
2022-12-11T08:48:12.388Z,81.26
2022-12-11T08:51:17.623Z,81.72
2022-12-11T08:54:21.551Z,81.54
2022-12-11T08:57:24.134Z,81.88
2022-12-11T09:00:26.737Z,82.43
2022-12-11T09:03:29.309Z,81.96
2022-12-11T09:06:34.288Z,81.82
2022-12-11T09:09:38.229Z,81.64
2022-12-11T09:12:41.476Z,81.40
2022-12-11T09:15:44.246Z,81.66
2022-12-11T09:18:47.453Z,81.99
2022-12-11T09:21:50.099Z,81.60
2022-12-11T09:24:54.029Z,81.27
2022-12-11T09:27:56.618Z,82.25
2022-12-11T09:30:59.643Z,82.34
2022-12-11T09:34:04.916Z,82.46
2022-12-11T09:37:07.497Z,81.48
2022-12-11T09:40:13.759Z,81.56
2022-12-11T09:43:37.269Z,81.89
2022-12-11T09:46:41.627Z,82.04
2022-12-11T09:49:46.593Z,81.60
2022-12-11T09:52:58.817Z,81.31
2022-12-11T09:56:08.315Z,80.54
2022-12-11T09:59:22.775Z,81.85
2022-12-11T10:02:40.899Z,81.61
2022-12-11T10:05:51.243Z,81.34
2022-12-11T10:09:04.200Z,82.19
2022-12-11T10:12:21.704Z,82.25
2022-12-11T10:15:40.766Z,80.91
2022-12-11T10:18:43.687Z,80.57
2022-12-11T10:21:47.632Z,79.78
2022-12-11T10:25:10.635Z,79.96
2022-12-11T10:28:17.394Z,79.63
2022-12-11T10:31:24.130Z,80.00
2022-12-11T10:34:35.229Z,78.92
2022-12-11T10:37:37.884Z,79.39
2022-12-11T10:40:43.790Z,79.31
2022-12-11T10:43:49.983Z,77.15
2022-12-11T10:47:03.949Z,75.40
2022-12-11T10:50:07.064Z,73.42
2022-12-11T10:53:21.380Z,72.57
2022-12-11T10:56:29.228Z,69.97
2022-12-11T10:59:37.543Z,67.70
2022-12-11T11:02:41.885Z,66.08
2022-12-11T11:05:49.242Z,64.34
2022-12-11T11:08:53.764Z,61.03
2022-12-11T11:11:56.366Z,58.91
2022-12-11T11:15:05.636Z,59.35
2022-12-11T11:18:13.557Z,62.20
2022-12-11T11:21:17.775Z,62.94
2022-12-11T11:24:28.757Z,67.34
2022-12-11T11:27:36.930Z,69.77
2022-12-11T11:30:42.867Z,68.53
2022-12-11T11:33:52.308Z,72.12
2022-12-11T11:37:00.899Z,72.95
2022-12-11T11:40:09.937Z,73.10
2022-12-11T11:43:19.968Z,74.11
2022-12-11T11:46:27.161Z,72.85
2022-12-11T11:49:45.469Z,73.66
2022-12-11T11:52:53.029Z,73.79
2022-12-11T11:56:04.016Z,74.90
2022-12-11T11:59:15.125Z,74.20
2022-12-11T12:02:20.853Z,75.89
2022-12-11T12:05:39.282Z,75.48
2022-12-11T12:08:47.560Z,75.04
2022-12-11T12:11:57.334Z,74.29
2022-12-11T12:15:11.166Z,73.70
2022-12-11T12:18:26.047Z,72.78
2022-12-11T12:21:35.205Z,73.01
2022-12-11T12:24:48.234Z,73.38
2022-12-11T12:28:00.501Z,72.39
2022-12-11T12:31:18.112Z,70.26
2022-12-11T12:34:37.743Z,72.10
2022-12-11T12:37:52.018Z,74.04
2022-12-11T12:41:03.818Z,73.11
2022-12-11T12:44:16.809Z,74.07
2022-12-11T12:47:20.859Z,72.33
2022-12-11T12:50:28.303Z,71.56
2022-12-11T12:53:35.699Z,71.79
2022-12-11T12:56:40.575Z,71.60
2022-12-11T12:59:43.163Z,72.13
2022-12-11T13:02:51.201Z,72.67
2022-12-11T13:06:00.378Z,72.09
2022-12-11T13:09:17.003Z,73.38
2022-12-11T13:12:32.915Z,73.36
2022-12-11T13:15:40.885Z,75.23
2022-12-11T13:18:45.218Z,73.84
2022-12-11T13:21:58.269Z,71.76
2022-12-11T13:25:04.739Z,75.18
2022-12-11T13:28:08.675Z,72.21
2022-12-11T13:31:33.612Z,71.71
2022-12-11T13:34:38.923Z,72.31
2022-12-11T13:37:45.196Z,72.62
2022-12-11T13:40:53.120Z,73.83
2022-12-11T13:43:58.389Z,74.79
2022-12-11T13:47:04.514Z,76.63
2022-12-11T13:50:23.888Z,76.85
2022-12-11T13:53:28.214Z,75.09
2022-12-11T13:56:30.817Z,76.58
2022-12-11T13:59:35.845Z,75.64
2022-12-11T14:02:42.437Z,74.66
2022-12-11T14:05:45.234Z,76.84
2022-12-11T14:08:53.873Z,76.99
2022-12-11T14:11:59.073Z,74.12
2022-12-11T14:15:04.504Z,73.30
2022-12-11T14:18:07.279Z,74.81
2022-12-11T14:21:19.981Z,74.17
2022-12-11T14:24:24.257Z,74.91
2022-12-11T14:27:28.662Z,76.39
2022-12-11T14:30:34.237Z,72.59
2022-12-11T14:33:42.003Z,71.56
2022-12-11T14:36:46.062Z,72.63
2022-12-11T14:39:57.777Z,70.22
2022-12-11T14:43:03.962Z,72.07
2022-12-11T14:46:11.954Z,71.83
2022-12-11T14:49:20.240Z,73.25
2022-12-11T14:52:30.172Z,73.10
2022-12-11T14:55:36.513Z,74.25
2022-12-11T14:58:43.279Z,74.08
2022-12-11T15:01:46.214Z,72.02
2022-12-11T15:05:06.251Z,74.68
2022-12-11T15:08:24.623Z,74.28
2022-12-11T15:11:32.881Z,73.60
2022-12-11T15:14:35.728Z,75.43
2022-12-11T15:17:38.352Z,71.72
2022-12-11T15:20:41.038Z,74.11
2022-12-11T15:23:52.353Z,74.20
2022-12-11T15:27:00.978Z,76.65
2022-12-11T15:30:03.854Z,76.05
2022-12-11T15:33:20.260Z,76.25
2022-12-11T15:36:26.541Z,75.96
2022-12-11T15:39:29.141Z,73.07
2022-12-11T15:42:36.220Z,74.27
2022-12-11T15:45:38.800Z,75.48
2022-12-11T15:48:41.439Z,74.19
2022-12-11T15:51:44.012Z,76.56
2022-12-11T15:54:46.641Z,78.11
2022-12-11T15:57:55.158Z,77.98
2022-12-11T16:00:59.003Z,76.04
2022-12-11T16:04:05.187Z,77.22
2022-12-11T16:07:16.257Z,77.99
2022-12-11T16:10:20.504Z,77.68
2022-12-11T16:13:24.443Z,78.22
2022-12-11T16:16:27.032Z,78.45
2022-12-11T16:19:29.631Z,78.04
2022-12-11T16:22:32.237Z,77.50
2022-12-11T16:25:35.093Z,79.01
2022-12-11T16:28:39.018Z,79.34
2022-12-11T16:31:41.604Z,79.01
2022-12-11T16:34:44.837Z,78.38
2022-12-11T16:37:50.172Z,79.33
2022-12-11T16:41:00.763Z,80.22
2022-12-11T16:44:04.897Z,79.65
2022-12-11T16:47:07.592Z,80.01
2022-12-11T16:50:10.922Z,80.95
2022-12-11T16:53:15.294Z,80.84
2022-12-11T16:56:17.880Z,80.18
2022-12-11T16:59:21.849Z,81.48
2022-12-11T17:02:24.584Z,81.20
2022-12-11T17:05:27.218Z,79.77
2022-12-11T17:08:29.874Z,79.89
2022-12-11T17:11:32.495Z,80.37
2022-12-11T17:14:36.549Z,81.69
2022-12-11T17:17:39.216Z,81.46
2022-12-11T17:20:42.655Z,80.26
2022-12-11T17:23:45.803Z,81.57
2022-12-11T17:26:48.456Z,81.64
2022-12-11T17:29:52.384Z,82.31
2022-12-11T17:32:54.963Z,81.61
2022-12-11T17:36:00.306Z,82.46
2022-12-11T17:39:02.982Z,81.93
2022-12-11T17:42:06.308Z,82.34
2022-12-11T17:45:11.597Z,82.19
2022-12-11T17:48:15.256Z,82.25
2022-12-11T17:51:23.573Z,81.73
2022-12-11T17:54:26.236Z,82.39
2022-12-11T17:57:28.820Z,82.79
2022-12-11T18:00:33.497Z,83.35
2022-12-11T18:03:36.898Z,83.95
2022-12-11T18:06:39.595Z,84.50
2022-12-11T18:09:42.501Z,84.80
2022-12-11T18:12:45.245Z,84.71
2022-12-11T18:16:00.418Z,84.75
2022-12-11T18:19:03.111Z,85.40
2022-12-11T18:22:05.693Z,85.24
2022-12-11T18:25:10.155Z,85.38
2022-12-11T18:28:14.319Z,84.79
2022-12-11T18:31:19.487Z,85.07
2022-12-11T18:34:22.150Z,85.78
2022-12-11T18:37:27.884Z,85.73
2022-12-11T18:40:30.905Z,85.64
2022-12-11T18:43:33.597Z,86.04
2022-12-11T18:46:39.240Z,85.89
2022-12-11T18:49:41.902Z,85.63
2022-12-11T18:52:44.470Z,86.35
2022-12-11T18:55:49.793Z,85.33
2022-12-11T18:58:53.074Z,85.90
2022-12-11T19:01:57.034Z,85.51
2022-12-11T19:04:59.672Z,85.53
2022-12-11T19:08:02.495Z,86.16
2022-12-11T19:11:05.394Z,86.47
2022-12-11T19:14:09.294Z,86.32
2022-12-11T19:17:13.271Z,86.05
2022-12-11T19:20:47.651Z,86.63
2022-12-11T19:23:38.594Z,86.69
2022-12-11T19:26:41.240Z,84.96
2022-12-11T19:29:43.834Z,85.86
2022-12-11T19:32:47.841Z,86.35
2022-12-11T19:35:50.474Z,85.59
2022-12-11T19:38:57.928Z,85.52
2022-12-11T19:42:03.722Z,85.87
2022-12-11T19:45:07.455Z,85.92
2022-12-11T19:48:11.639Z,85.07
2022-12-11T19:51:16.620Z,84.98
2022-12-11T19:54:19.330Z,84.94
2022-12-11T19:57:21.907Z,85.40
2022-12-11T20:00:24.578Z,85.43
2022-12-11T20:03:28.995Z,85.59
2022-12-11T20:06:33.491Z,86.53
2022-12-11T20:09:36.100Z,87.15
2022-12-11T20:12:38.712Z,85.52
2022-12-11T20:15:41.581Z,84.51
2022-12-11T20:18:46.181Z,85.48
2022-12-11T20:21:48.993Z,86.08
2022-12-11T20:24:51.776Z,85.87
2022-12-11T20:27:55.570Z,86.19
2022-12-11T20:31:04.743Z,86.47
2022-12-11T20:34:08.880Z,86.79
2022-12-11T20:37:11.494Z,85.25
2022-12-11T20:40:14.306Z,84.30
2022-12-11T20:43:17.086Z,86.37
2022-12-11T20:46:20.298Z,85.20
2022-12-11T20:49:24.334Z,84.60
2022-12-11T20:52:27.930Z,84.17
2022-12-11T20:55:30.518Z,85.04
2022-12-11T20:58:33.104Z,85.08
2022-12-11T21:01:35.852Z,85.19
2022-12-11T21:04:41.240Z,84.99
2022-12-11T21:07:43.856Z,83.09
2022-12-11T21:10:47.272Z,83.15
2022-12-11T21:13:50.488Z,81.95
2022-12-11T21:16:53.156Z,81.37
2022-12-11T21:19:57.138Z,81.06
2022-12-11T21:22:59.874Z,80.83
2022-12-11T21:26:03.121Z,80.30
2022-12-11T21:29:05.758Z,81.37
2022-12-11T21:32:08.429Z,81.91
2022-12-11T21:35:13.429Z,83.88
2022-12-11T21:38:16.239Z,81.51
2022-12-11T21:41:21.483Z,82.33
2022-12-11T21:47:46.654Z,82.08
2022-12-11T21:50:51.553Z,82.42
2022-12-11T21:53:54.583Z,82.21
2022-12-11T21:56:57.642Z,83.01
2022-12-11T22:00:00.818Z,81.98
2022-12-11T22:03:03.426Z,81.79
2022-12-11T22:06:07.978Z,82.33
2022-12-11T22:09:12.345Z,82.89
2022-12-11T22:12:23.049Z,81.75
2022-12-11T22:15:25.649Z,81.05
2022-12-11T22:18:28.409Z,82.05
2022-12-11T22:21:32.411Z,81.28
2022-12-11T22:24:34.997Z,82.33
2022-12-11T22:27:37.579Z,83.06
2022-12-11T22:30:40.264Z,81.83
2022-12-11T22:33:43.084Z,82.74
2022-12-11T22:36:47.036Z,83.27
2022-12-11T22:39:49.689Z,82.97
2022-12-11T22:42:52.316Z,81.01
2022-12-11T22:45:55.105Z,81.27
2022-12-11T22:48:59.354Z,80.33
2022-12-11T22:52:03.302Z,79.96
2022-12-11T22:55:07.148Z,80.20
2022-12-11T22:58:09.746Z,79.98
2022-12-11T23:01:14.874Z,79.80
2022-12-11T23:04:17.487Z,80.94
2022-12-11T23:07:21.439Z,82.28
2022-12-11T23:10:24.037Z,80.63
2022-12-11T23:13:26.662Z,80.33
2022-12-11T23:16:29.731Z,81.35
2022-12-11T23:19:32.535Z,81.81
2022-12-11T23:22:36.479Z,81.51
2022-12-11T23:25:39.124Z,81.84
2022-12-11T23:28:42.563Z,82.54
2022-12-11T23:31:45.188Z,81.43
2022-12-11T23:34:47.785Z,80.16
2022-12-11T23:37:51.745Z,81.28
2022-12-11T23:40:55.081Z,80.36
2022-12-11T23:43:57.656Z,80.66
2022-12-11T23:47:00.516Z,78.58
2022-12-11T23:50:03.094Z,79.09
2022-12-11T23:53:07.333Z,80.35
2022-12-11T23:56:14.765Z,79.21
2022-12-11T23:59:17.353Z,79.41
